Portada
METAR-TAF:

METAR-TAF

Aeroports :

Lüderitz, Namíbia

latitud: 26-41S, longitud: 015-15E, altitud: 130 m

Observació

L'informe es va fer fa 1 hora i 10 minuts, a les 01:00 UTC
Temperatura 15°C
Humitat 82%
Pressió 1018 hPa

METAR: FYLZ 180100Z AUTO /////KT //// // ////// 15/12 Q1018

Hora: 04:10 (02:10 UTC)

Pronòstic

L'informe es va fer fa 9 hores i 10 minuts, a les 17:00 UTC
Pronòstic vàlid del 17 a les 18 UTC al 18 a les 03 UTC
Vent 6 kt del Sud
Visibilitat 10 km o més
sense núvols per sota de 1500 mi sense presència de cumulonimbus.

TAF: FYLZ 171700Z 1718/1803 18006KT CAVOK

Observacions i pronòstics meteorològics de més de 4000 aeroports (METAR i TAF).

Les estacions disponibles són els punts grocs i vermells al mapa.

Posi el ratolí al punt desitjat per veure el nom de l'estació.

Feu clic per veure les observacions i els pronòstics meteorològics.

Per canviar el mapa: feu clic els botons verds amb una creu de color negre per apropar; al botó verd amb un guió per allunyar la imatge; o en les fletxes verdes per a mapes adjacents.


METAR-TAF: